메인 페이지
METAR-TAF:

METAR-TAF

공항 :

Massena, 뉴욕, 미국

위도: 44-56-09N, 경도: 074-50-44W, 고도: 66m

현재 날씨관측

예보는 36분 전, 13:53시(UTC)에 발표되었습니다.
서북서5kt
온도 16°C
습도 63%
기압 1013 hPa
시정: 16.1km
고도 2500ft 상공 구름 조금

METAR: KMSS 301353Z AUTO 30005KT 10SM FEW025 16/09 A2992 RMK AO2 SLP130 T01610094

시각: 10:29 (14:29 UTC)

예보

예보는 3 시간 9분 전, 11:20시(UTC)에 발표되었습니다.
예보 대상 시간: 30일 12시부터 31일 12시까지 (UTC)
11kt
시정: 10km
고도 2500ft 상공 구름 보통
고도 4000ft 상공 구름 많음
일시적
30일 12시부터 30일 15시까지 (UTC)
고도 2500ft 상공 구름 많음
30일 1800시부터 (UTC)
서남서8kt
시정: 10km
고도 5000ft 상공 구름 많음
시계 내 소나기
30일 2200시부터 (UTC)
9kt
시정: 10km
고도 2800ft 상공 구름 많음
약한소나기
31일 0100시부터 (UTC)
10kt
시정: 10km
고도 2800ft 상공 구름 많음
31일 0500시부터 (UTC)
6kt
시정: 10km
고도 5000ft 상공 구름 보통

TAF: KMSS 301120Z 3012/3112 28011KT P6SM SCT025 BKN040 TEMPO 3012/3015 BKN025 FM301800 25008KT P6SM VCSH BKN050 FM302200 26009KT P6SM -SHRA BKN028 FM310100 26010KT P6SM BKN028 FM310500 28006KT P6SM SCT050

4,000개 이상의 공항 관측 자료 및 예보 (METAR 및 TAF 보고).

지도상에서 검색 가능한 기상관측소가 노란 점과 빨간 점으로 표시되어 있습니다.

기상관측소 명을 보려면 표시 위로 마우스를 이동하세요.

날씨 관측과 예보를 보려면 클릭하세요.

지도 변경 : 확대하려면 엑스 표시가 있는 녹색 버튼, 축소하려면 빼기 표시가 있는 녹색 버튼, 다음 페이지의 지도를 보려면 녹색 화살표를 클릭하세요.


METAR-TAF: